RJFA(METAR)
07/27 17:00
METAR RJFA 270800Z 01013KT 9999 FEW013 28/23 Q1000 RMK 1CU013 A2955
RWY30 01014KT=
戻る
トップページへ戻る
IMOC Co,.Ltd.